Time;durP1;ratioP1;P1;durP2;ratioP2;P2;SDS_P1;SDS_P2;PMS_P1;PMS_P2;Temp;Humidity;BMP_temperature;BMP_pressure;BME280_temperature;BME280_humidity;BME280_pressure;Samples;Min_cycle;Max_cycle;Signal;HPM_P1;HPM_P2
2023/01/11 00:01:41;;;;;;;13.62;10.95;;;7.20;85.70;;;;;;10751917;33;20056;-76
2023/01/11 00:07:43;;;;;;;18.17;15.45;;;7.20;85.70;;;;;;10753475;33;20032;-76
2023/01/11 00:13:45;;;;;;;24.23;16.98;;;7.20;85.40;;;;;;10752637;33;20001;-76
2023/01/11 00:19:47;;;;;;;17.23;13.73;;;7.30;85.70;;;;;;10753256;33;20020;-76
2023/01/11 00:25:49;;;;;;;16.23;11.43;;;7.30;85.80;;;;;;10755741;27;20032;-76
2023/01/11 00:31:52;;;;;;;19.05;14.55;;;7.20;85.60;;;;;;10753059;33;20053;-76
2023/01/11 00:37:54;;;;;;;17.50;13.50;;;7.10;85.50;;;;;;10753332;33;20029;-76
2023/01/11 00:50:17;;;;;;;19.73;15.88;;;7.10;85.70;;;;;;10752557;33;20444;-76
2023/01/11 00:56:19;;;;;;;19.20;14.43;;;7.00;85.70;;;;;;10752272;33;20323;-76
2023/01/11 01:02:21;;;;;;;24.45;15.68;;;6.90;85.30;;;;;;10739146;33;20064;-76
2023/01/11 01:08:23;;;;;;;18.23;13.27;;;6.90;85.20;;;;;;10748655;33;20402;-76
2023/01/11 01:14:25;;;;;;;16.87;12.45;;;6.80;85.10;;;;;;10751870;33;20460;-76
2023/01/11 01:20:28;;;;;;;12.45;10.77;;;6.80;85.00;;;;;;10737825;33;20032;-76
2023/01/11 01:26:30;;;;;;;15.68;10.63;;;6.60;84.70;;;;;;10750573;33;20055;-76
2023/01/11 01:32:32;;;;;;;15.05;12.90;;;6.30;85.30;;;;;;10748336;33;20054;-76
2023/01/11 01:38:34;;;;;;;17.75;12.30;;;6.20;85.60;;;;;;10738118;33;20338;-76
2023/01/11 01:44:55;;;;;;;16.35;13.35;;;6.20;85.60;;;;;;10751168;33;20013;-76
2023/01/11 01:50:59;;;;;;;14.87;11.70;;;6.30;85.50;;;;;;10750970;33;20045;-76
2023/01/11 01:57:17;;;;;;;16.48;11.32;;;6.20;85.50;;;;;;10750790;33;20426;-76
2023/01/11 02:03:24;;;;;;;17.10;13.13;;;6.20;85.80;;;;;;10737764;33;20047;-76
2023/01/11 02:09:37;;;;;;;19.80;16.02;;;6.30;85.70;;;;;;10737367;33;20029;-76
2023/01/11 02:15:39;;;;;;;12.70;10.60;;;6.50;86.00;;;;;;10737554;33;20029;-76
2023/01/11 02:21:57;;;;;;;17.55;12.70;;;6.50;86.40;;;;;;10750206;33;20028;-76
2023/01/11 02:28:11;;;;;;;14.82;11.60;;;6.60;86.60;;;;;;10750239;33;20047;-76
2023/01/11 02:34:16;;;;;;;15.77;11.45;;;6.50;86.00;;;;;;10752624;33;20008;-76
2023/01/11 02:40:53;;;;;;;18.15;14.77;;;6.40;85.50;;;;;;10743334;33;20032;-76
2023/01/11 02:47:02;;;;;;;18.48;14.00;;;6.30;85.30;;;;;;10753741;33;20020;-76
2023/01/11 02:53:17;;;;;;;21.52;17.17;;;6.40;85.80;;;;;;10752829;33;20055;-76
2023/01/11 02:59:27;;;;;;;15.75;12.77;;;6.40;85.60;;;;;;10755637;33;20056;-76
2023/01/11 03:05:29;;;;;;;16.45;12.32;;;6.30;85.60;;;;;;10755542;33;20025;-76
2023/01/11 03:18:22;;;;;;;15.10;11.75;;;6.20;85.50;;;;;;10755793;33;20025;-76
2023/01/11 03:24:42;;;;;;;14.73;11.55;;;6.20;85.10;;;;;;10753133;33;20024;-76
2023/01/11 03:31:05;;;;;;;15.43;12.10;;;6.10;85.10;;;;;;10754839;33;20020;-76
2023/01/11 03:37:23;;;;;;;16.83;13.55;;;6.00;84.90;;;;;;10754716;33;20017;-76
2023/01/11 03:43:27;;;;;;;14.25;11.18;;;6.00;84.90;;;;;;10754091;33;20391;-76
2023/01/11 03:49:36;;;;;;;11.77;10.48;;;6.00;84.80;;;;;;10754373;33;20021;-76
2023/01/11 03:55:43;;;;;;;17.15;13.07;;;6.10;85.20;;;;;;10741099;33;20059;-76
2023/01/11 04:01:45;;;;;;;15.30;12.48;;;6.10;84.90;;;;;;10736953;33;20032;-76
2023/01/11 04:07:47;;;;;;;17.80;11.75;;;6.20;84.70;;;;;;10752086;33;20024;-76
2023/01/11 04:13:49;;;;;;;16.50;13.18;;;6.30;84.90;;;;;;10753592;33;20021;-76
2023/01/11 04:19:50;;;;;;;20.05;15.93;;;6.40;84.60;;;;;;10753218;33;20356;-76
2023/01/11 04:25:52;;;;;;;14.55;10.68;;;6.50;84.50;;;;;;10753404;33;20426;-76
2023/01/11 04:31:54;;;;;;;15.65;12.05;;;6.60;84.00;;;;;;10753113;33;20044;-76
2023/01/11 04:37:57;;;;;;;14.80;11.93;;;6.50;83.80;;;;;;10752823;33;20028;-76
2023/01/11 04:44:15;;;;;;;13.70;10.27;;;6.50;83.60;;;;;;10716345;33;20047;-76
2023/01/11 04:50:26;;;;;;;15.98;11.88;;;6.70;83.30;;;;;;10715579;33;20044;-76
2023/01/11 04:56:29;;;;;;;14.45;11.10;;;6.80;83.60;;;;;;10716006;33;20048;-77
2023/01/11 05:02:31;;;;;;;13.70;10.27;;;6.90;83.80;;;;;;10715106;33;20498;-76
2023/01/11 05:08:33;;;;;;;11.57;9.52;;;6.90;83.30;;;;;;10715764;33;20323;-76
2023/01/11 05:14:35;;;;;;;16.77;12.10;;;6.80;83.00;;;;;;10715600;33;20059;-77
2023/01/11 05:20:37;;;;;;;14.25;10.70;;;6.80;82.90;;;;;;10715307;33;20355;-76
2023/01/11 05:26:41;;;;;;;16.98;10.40;;;6.90;82.60;;;;;;10715320;33;20323;-76
2023/01/11 05:32:43;;;;;;;13.88;10.25;;;6.90;82.40;;;;;;10738134;33;20040;-76
2023/01/11 05:38:47;;;;;;;14.05;11.12;;;6.90;82.20;;;;;;10751430;33;20021;-76
2023/01/11 05:51:10;;;;;;;11.45;8.23;;;7.00;81.70;;;;;;10751140;33;20432;-76
2023/01/11 05:57:13;;;;;;;13.07;10.20;;;6.90;81.60;;;;;;10750923;33;20030;-77
2023/01/11 06:03:17;;;;;;;11.88;8.57;;;7.10;82.10;;;;;;10752696;33;20391;-77
2023/01/11 06:09:19;;;;;;;10.93;8.45;;;7.20;81.80;;;;;;10757107;33;20025;-76
2023/01/11 06:15:21;;;;;;;14.63;9.20;;;7.10;81.70;;;;;;10756931;33;20051;-77
2023/01/11 06:21:23;;;;;;;14.48;9.63;;;7.20;81.50;;;;;;10754318;33;20366;-76
2023/01/11 06:27:25;;;;;;;14.32;11.07;;;7.20;81.30;;;;;;10756672;33;20047;-77
2023/01/11 06:33:28;;;;;;;13.68;10.07;;;7.30;82.10;;;;;;10755779;33;20049;-77
2023/01/11 06:39:30;;;;;;;12.30;10.02;;;7.40;82.20;;;;;;10751981;33;20319;-76
2023/01/11 06:45:42;;;;;;;14.63;10.55;;;7.50;82.70;;;;;;10743140;33;20029;-76
2023/01/11 06:51:44;;;;;;;13.40;10.02;;;7.40;82.10;;;;;;10755911;33;20021;-77
2023/01/11 06:57:46;;;;;;;14.98;9.75;;;7.30;82.00;;;;;;10755748;33;20051;-77
2023/01/11 07:03:48;;;;;;;12.05;10.57;;;7.50;81.80;;;;;;10742104;33;20032;-77
2023/01/11 07:09:52;;;;;;;12.10;9.10;;;7.50;81.80;;;;;;10752253;33;20041;-77
2023/01/11 07:15:57;;;;;;;11.75;8.93;;;7.70;82.50;;;;;;10752448;33;20032;-77
2023/01/11 07:22:16;;;;;;;13.13;8.57;;;7.80;83.00;;;;;;10754807;33;20071;-77
2023/01/11 07:28:18;;;;;;;14.07;10.70;;;7.70;83.00;;;;;;10754922;33;20024;-76
2023/01/11 07:34:20;;;;;;;14.35;10.52;;;7.70;82.70;;;;;;10754777;33;20021;-76
2023/01/11 07:40:22;;;;;;;17.50;12.65;;;7.70;82.30;;;;;;10754339;33;20055;-77
2023/01/11 07:46:25;;;;;;;17.92;12.55;;;7.80;81.90;;;;;;10754271;33;20400;-76
2023/01/11 07:52:27;;;;;;;13.55;9.65;;;7.80;82.00;;;;;;10753703;33;20024;-76
2023/01/11 07:58:28;;;;;;;15.88;10.20;;;7.90;82.20;;;;;;10740397;33;20044;-76
2023/01/11 08:04:30;;;;;;;15.88;9.70;;;8.10;82.70;;;;;;10753573;33;20399;-76
2023/01/11 08:10:33;;;;;;;11.75;8.25;;;8.20;82.90;;;;;;10753575;33;20021;-76
2023/01/11 08:16:35;;;;;;;14.32;8.57;;;8.20;82.90;;;;;;10753414;33;20016;-77
2023/01/11 08:22:37;;;;;;;7.43;5.43;;;8.30;83.30;;;;;;10376289;27;12094710;-77
2023/01/11 08:28:39;;;;;;;7.95;5.35;;;8.40;83.60;;;;;;10700185;33;20075;-76
2023/01/11 08:34:41;;;;;;;7.93;5.70;;;8.40;83.70;;;;;;10710109;33;20029;-77
2023/01/11 08:40:43;;;;;;;10.90;6.50;;;8.40;84.30;;;;;;10712385;33;20051;-77
2023/01/11 08:46:45;;;;;;;11.32;5.90;;;8.70;84.90;;;;;;10720908;33;20025;-77
2023/01/11 08:52:48;;;;;;;7.55;5.10;;;8.60;85.60;;;;;;10752532;33;20013;-77
2023/01/11 08:58:50;;;;;;;10.85;4.68;;;8.60;86.40;;;;;;10752147;33;20025;-77
2023/01/11 09:04:52;;;;;;;7.93;4.65;;;8.70;86.70;;;;;;10752071;33;20021;-77
2023/01/11 09:10:58;;;;;;;7.70;5.47;;;8.90;86.90;;;;;;10734545;33;20398;-77
2023/01/11 09:17:00;;;;;;;7.53;5.28;;;9.00;86.50;;;;;;10751812;33;20391;-77
2023/01/11 09:23:02;;;;;;;5.40;3.62;;;8.80;87.50;;;;;;10750903;33;20033;-77
2023/01/11 09:29:04;;;;;;;6.90;4.18;;;8.90;88.10;;;;;;10751532;33;20063;-76
2023/01/11 09:35:07;;;;;;;6.03;4.20;;;9.00;87.70;;;;;;10751351;33;20377;-77
2023/01/11 09:41:27;;;;;;;5.45;3.62;;;9.00;87.90;;;;;;10750669;33;20021;-77
2023/01/11 09:47:41;;;;;;;6.10;3.30;;;9.20;87.80;;;;;;10751209;33;20059;-77
2023/01/11 09:53:49;;;;;;;6.05;4.03;;;9.00;88.00;;;;;;10738187;32;20425;-77
2023/01/11 10:00:05;;;;;;;6.37;4.15;;;9.10;88.40;;;;;;10750822;33;20446;-76
2023/01/11 10:06:32;;;;;;;6.55;4.97;;;9.10;88.00;;;;;;10750351;33;20024;-77
2023/01/11 10:12:58;;;;;;;5.43;3.83;;;9.20;88.50;;;;;;10750444;33;20021;-77
2023/01/11 10:19:17;;;;;;;6.75;4.60;;;9.30;88.80;;;;;;10737038;33;20111;-77
2023/01/11 10:38:29;;;;;;;6.78;4.15;;;9.50;88.70;;;;;;10746545;33;20029;-77
2023/01/11 10:44:43;;;;;;;6.40;3.87;;;9.60;88.60;;;;;;10724373;33;20473;-77
2023/01/11 10:51:04;;;;;;;4.60;3.17;;;9.50;88.60;;;;;;10753204;33;20020;-77
2023/01/11 10:57:27;;;;;;;5.10;3.03;;;9.60;88.50;;;;;;10755563;33;20039;-78
2023/01/11 11:04:00;;;;;;;6.03;3.05;;;9.60;88.40;;;;;;10756115;33;20021;-77
2023/01/11 11:10:33;;;;;;;4.50;2.75;;;9.50;87.90;;;;;;10755924;33;20056;-77
2023/01/11 11:17:00;;;;;;;3.67;1.83;;;9.60;87.60;;;;;;10755307;33;20024;-78
2023/01/11 11:23:02;;;;;;;4.12;1.95;;;9.80;88.10;;;;;;10755042;33;20078;-77
2023/01/11 11:29:07;;;;;;;2.47;1.27;;;9.90;87.60;;;;;;10754823;33;20017;-77
2023/01/11 11:35:32;;;;;;;5.22;1.65;;;10.20;87.90;;;;;;10740088;33;20407;-77
2023/01/11 11:41:47;;;;;;;3.62;1.77;;;10.50;86.80;;;;;;10741069;33;20323;-77
2023/01/11 11:48:10;;;;;;;2.05;1.40;;;10.70;87.30;;;;;;10754360;33;20021;-77
2023/01/11 11:54:25;;;;;;;3.28;1.80;;;10.80;86.90;;;;;;10753972;33;20056;-76
2023/01/11 12:00:29;;;;;;;3.28;1.73;;;10.90;86.30;;;;;;10752689;33;20331;-77
2023/01/11 12:06:31;;;;;;;2.67;1.37;;;10.90;86.30;;;;;;10730784;33;20033;-76
2023/01/11 12:12:46;;;;;;;4.78;1.87;;;10.80;86.60;;;;;;10716110;33;20025;-76
2023/01/11 12:18:48;;;;;;;4.37;2.25;;;10.80;87.00;;;;;;10718244;32;20059;-77
2023/01/11 12:25:04;;;;;;;2.35;1.37;;;10.80;87.20;;;;;;10749832;33;20063;-76
2023/01/11 12:31:41;;;;;;;3.60;1.80;;;10.80;87.20;;;;;;10813619;32;20402;-77
2023/01/11 12:37:58;;;;;;;4.62;2.22;;;10.90;87.10;;;;;;10752909;33;20029;-78
2023/01/11 12:44:07;;;;;;;1.48;0.98;;;11.00;87.00;;;;;;10748706;33;20047;-77
2023/01/11 12:50:23;;;;;;;2.47;1.27;;;11.00;87.50;;;;;;10752060;33;20028;-77
2023/01/11 12:56:44;;;;;;;1.92;1.60;;;11.20;87.70;;;;;;10738895;33;20043;-77
2023/01/11 13:03:05;;;;;;;4.45;1.70;;;11.20;87.70;;;;;;10748343;33;20402;-77
2023/01/11 13:09:06;;;;;;;3.22;2.05;;;11.30;87.60;;;;;;10751855;33;20433;-77
2023/01/11 13:15:15;;;;;;;3.53;2.22;;;11.40;87.40;;;;;;10750546;33;20021;-77
2023/01/11 13:21:51;;;;;;;7.65;3.40;;;11.30;87.50;;;;;;10747634;33;20021;-77
2023/01/11 13:27:55;;;;;;;5.78;3.47;;;11.20;87.40;;;;;;10751587;33;20407;-77
2023/01/11 13:34:24;;;;;;;2.33;1.70;;;11.00;87.90;;;;;;10751415;33;20013;-77
2023/01/11 13:40:51;;;;;;;3.00;1.97;;;11.00;88.30;;;;;;10675831;32;20327;-77
2023/01/11 13:47:18;;;;;;;4.50;2.22;;;11.20;88.20;;;;;;10674445;32;20033;-77
2023/01/11 13:53:35;;;;;;;7.53;2.92;;;11.20;88.10;;;;;;10674577;32;20021;-77
2023/01/11 13:59:47;;;;;;;5.22;2.25;;;11.20;88.00;;;;;;10674356;33;20063;-76
2023/01/11 14:06:08;;;;;;;5.45;2.72;;;11.20;88.50;;;;;;10671774;33;20458;-77
2023/01/11 14:12:13;;;;;;;3.67;2.55;;;11.20;88.20;;;;;;10649275;33;20041;-76
2023/01/11 14:18:38;;;;;;;5.33;2.40;;;11.30;88.60;;;;;;10711864;33;20052;-77
2023/01/11 14:24:51;;;;;;;4.15;2.47;;;11.50;88.40;;;;;;10711657;32;20437;-77
2023/01/11 14:31:43;;;;;;;4.80;2.65;;;11.40;88.50;;;;;;10737738;33;20055;-77
2023/01/11 14:38:15;;;;;;;5.30;2.08;;;11.40;89.10;;;;;;10756472;33;20025;-76
2023/01/11 14:44:32;;;;;;;3.78;2.40;;;11.50;88.80;;;;;;10742502;33;20056;-77
2023/01/11 14:50:49;;;;;;;3.70;2.78;;;11.60;88.80;;;;;;10755796;33;20025;-77
2023/01/11 14:56:56;;;;;;;3.97;2.80;;;11.60;88.70;;;;;;10741684;33;20047;-77
2023/01/11 15:02:59;;;;;;;5.75;3.65;;;11.60;88.70;;;;;;10754812;33;20024;-77
2023/01/11 15:09:01;;;;;;;6.32;3.12;;;11.50;88.80;;;;;;10755254;33;20025;-76
2023/01/11 15:15:12;;;;;;;5.28;3.30;;;11.50;88.80;;;;;;10738532;32;20055;-76
2023/01/11 15:21:24;;;;;;;4.80;3.05;;;11.50;88.90;;;;;;10755087;33;20059;-77
2023/01/11 15:27:37;;;;;;;3.00;1.83;;;11.40;89.20;;;;;;10752672;33;20029;-76
2023/01/11 15:33:47;;;;;;;3.55;2.35;;;11.20;89.30;;;;;;10754834;33;20449;-74
2023/01/11 15:40:13;;;;;;;6.43;2.95;;;11.20;89.70;;;;;;10734744;33;20059;-74
2023/01/11 15:46:55;;;;;;;4.50;3.15;;;11.10;89.80;;;;;;10718226;33;20025;-74
2023/01/11 15:53:21;;;;;;;4.72;2.58;;;11.00;89.90;;;;;;10738216;32;20032;-74
2023/01/11 15:59:43;;;;;;;6.40;3.25;;;10.80;90.10;;;;;;10671269;33;20045;-74
2023/01/11 16:06:23;;;;;;;5.20;3.50;;;10.70;90.30;;;;;;10676792;33;20064;-74
2023/01/11 16:12:45;;;;;;;6.10;3.70;;;10.60;90.40;;;;;;10799412;32;20058;-74
2023/01/11 16:19:18;;;;;;;10.02;5.70;;;10.60;90.40;;;;;;10785844;32;20160;-74
2023/01/11 16:25:24;;;;;;;9.65;5.50;;;10.50;90.40;;;;;;10839956;27;20063;-74
2023/01/11 16:31:50;;;;;;;10.10;6.37;;;10.50;90.40;;;;;;10877175;32;20154;-74
2023/01/11 16:37:57;;;;;;;10.20;6.80;;;10.50;90.10;;;;;;10853029;32;20058;-74
2023/01/11 16:44:03;;;;;;;12.73;7.85;;;10.50;90.20;;;;;;10850791;32;20066;-74
2023/01/11 16:50:19;;;;;;;12.63;9.02;;;10.40;90.30;;;;;;10861434;32;20015;-74
2023/01/11 16:56:22;;;;;;;10.48;7.20;;;10.30;90.30;;;;;;10915382;32;20045;-76
2023/01/11 17:02:30;;;;;;;16.37;12.02;;;10.30;90.30;;;;;;10928929;32;20026;-76
2023/01/11 17:08:40;;;;;;;16.12;11.98;;;10.20;90.20;;;;;;10940598;32;20027;-76
2023/01/11 17:15:19;;;;;;;15.73;10.40;;;10.20;90.30;;;;;;10939088;32;20045;-76
2023/01/11 17:21:27;;;;;;;12.27;9.52;;;10.20;90.30;;;;;;10926431;32;20065;-76
2023/01/11 17:27:29;;;;;;;13.15;9.32;;;10.20;90.30;;;;;;10942226;32;20348;-76
2023/01/11 17:33:31;;;;;;;10.85;7.95;;;10.20;90.20;;;;;;10942135;32;20020;-76
2023/01/11 17:39:34;;;;;;;13.40;10.02;;;10.20;90.10;;;;;;10941900;32;20045;-76
2023/01/11 17:45:37;;;;;;;14.18;11.02;;;10.00;90.00;;;;;;10941838;32;20019;-76
2023/01/11 17:51:40;;;;;;;13.35;10.45;;;9.90;90.30;;;;;;10941675;32;20018;-76
2023/01/11 17:57:42;;;;;;;14.57;11.95;;;10.00;90.20;;;;;;10941902;32;20046;-76
2023/01/11 18:03:56;;;;;;;12.18;9.90;;;10.10;89.90;;;;;;10935262;32;20433;-76
2023/01/11 18:09:58;;;;;;;15.35;11.82;;;10.30;89.60;;;;;;10949132;32;20310;-76
2023/01/11 18:16:03;;;;;;;23.87;14.07;;;10.40;89.40;;;;;;10949090;32;20018;-76
2023/01/11 18:22:31;;;;;;;19.33;12.57;;;10.50;89.30;;;;;;10948504;32;20031;-76
2023/01/11 18:28:38;;;;;;;14.45;10.27;;;10.60;88.80;;;;;;10948942;32;20019;-76
2023/01/11 18:34:41;;;;;;;18.42;11.77;;;10.60;88.70;;;;;;10934432;32;20046;-76
2023/01/11 18:40:45;;;;;;;16.67;11.43;;;10.60;88.60;;;;;;10933711;32;20440;-76
2023/01/11 18:46:47;;;;;;;17.67;13.95;;;10.70;88.20;;;;;;10930949;32;20053;-76
2023/01/11 18:52:49;;;;;;;17.85;12.30;;;10.70;87.80;;;;;;10947460;32;20382;-76
2023/01/11 18:58:51;;;;;;;12.63;9.10;;;10.70;87.50;;;;;;10947127;32;20042;-76
2023/01/11 19:04:55;;;;;;;14.77;11.25;;;10.70;87.40;;;;;;10946228;32;20375;-76
2023/01/11 19:10:57;;;;;;;16.48;13.68;;;10.60;87.50;;;;;;10945621;32;20420;-76
2023/01/11 19:16:59;;;;;;;17.17;12.80;;;10.50;87.60;;;;;;10946669;32;20023;-76
2023/01/11 19:23:01;;;;;;;14.07;11.35;;;10.50;87.50;;;;;;10946332;32;20069;-76
2023/01/11 19:29:03;;;;;;;19.27;12.77;;;10.50;87.50;;;;;;10946238;32;20342;-76
2023/01/11 19:35:06;;;;;;;16.25;12.30;;;10.40;87.40;;;;;;10943560;32;20057;-76
2023/01/11 19:41:09;;;;;;;17.35;12.55;;;10.40;87.30;;;;;;10945653;32;20054;-76
2023/01/11 19:47:14;;;;;;;16.55;13.25;;;10.30;87.30;;;;;;10945416;32;20027;-76
2023/01/11 19:53:17;;;;;;;17.05;12.27;;;10.30;87.80;;;;;;10943734;32;20069;-76
2023/01/11 19:59:19;;;;;;;16.52;13.57;;;10.20;88.30;;;;;;10930514;32;20027;-76
2023/01/11 20:05:22;;;;;;;23.15;18.35;;;10.20;88.00;;;;;;10944524;32;20046;-76
2023/01/11 20:11:25;;;;;;;17.60;13.57;;;10.20;87.90;;;;;;10944263;32;20019;-76
2023/01/11 20:17:28;;;;;;;17.42;13.62;;;10.20;87.80;;;;;;10940209;32;20019;-76
2023/01/11 20:23:38;;;;;;;16.80;12.43;;;10.10;87.80;;;;;;10943695;32;20031;-76
2023/01/11 20:29:42;;;;;;;17.37;15.48;;;10.00;87.80;;;;;;10930168;32;20307;-76
2023/01/11 20:35:44;;;;;;;17.92;13.52;;;10.00;87.80;;;;;;10943665;32;20019;-76
2023/01/11 20:41:46;;;;;;;22.30;16.42;;;10.00;87.70;;;;;;10939735;32;20027;-76
2023/01/11 20:47:51;;;;;;;18.08;12.63;;;10.00;87.70;;;;;;10943121;32;20015;-74
2023/01/11 20:53:53;;;;;;;21.17;14.95;;;9.90;87.70;;;;;;10943110;32;20073;-76
2023/01/11 20:59:55;;;;;;;17.92;13.75;;;9.90;87.80;;;;;;10903251;32;20028;-76
2023/01/11 21:06:00;;;;;;;20.45;13.85;;;9.80;87.70;;;;;;10904990;32;20019;-76
2023/01/11 21:12:02;;;;;;;16.87;13.90;;;9.70;88.10;;;;;;10905000;32;20045;-76
2023/01/11 21:18:04;;;;;;;15.95;12.85;;;9.80;88.30;;;;;;10901036;32;20471;-76
2023/01/11 21:24:26;;;;;;;18.25;12.75;;;9.80;88.20;;;;;;10907068;32;20047;-76
2023/01/11 21:30:29;;;;;;;21.95;15.65;;;9.40;88.20;;;;;;10904590;32;20015;-76
2023/01/11 21:36:50;;;;;;;19.67;14.98;;;9.10;88.60;;;;;;10903961;32;20046;-76
2023/01/11 21:42:52;;;;;;;19.25;13.98;;;9.20;88.70;;;;;;10891025;32;20049;-76
2023/01/11 21:48:53;;;;;;;20.73;16.60;;;9.30;88.70;;;;;;10904284;32;20389;-76
2023/01/11 21:54:56;;;;;;;27.30;18.48;;;9.40;88.30;;;;;;10904083;32;20015;-76
2023/01/11 22:00:58;;;;;;;22.23;17.20;;;9.40;88.30;;;;;;10890377;32;20027;-76
2023/01/11 22:07:00;;;;;;;25.20;18.40;;;9.50;88.60;;;;;;10890514;32;20050;-76
2023/01/11 22:13:02;;;;;;;18.95;15.20;;;9.60;88.60;;;;;;10890448;32;20020;-76
2023/01/11 22:19:06;;;;;;;18.40;12.27;;;9.50;88.30;;;;;;10889878;32;20035;-74
2023/01/11 22:25:08;;;;;;;18.00;13.27;;;9.20;88.40;;;;;;10902150;32;20028;-74
2023/01/11 22:31:31;;;;;;;15.45;12.00;;;9.00;88.80;;;;;;10903442;32;20020;-74
2023/01/11 22:37:33;;;;;;;17.12;9.20;;;8.80;88.90;;;;;;10897571;32;20082;-74
2023/01/11 22:43:35;;;;;;;12.70;8.25;;;8.80;89.10;;;;;;10903321;32;20018;-74
2023/01/11 22:49:37;;;;;;;12.00;9.05;;;8.70;89.10;;;;;;10906957;32;20463;-74
2023/01/11 22:55:39;;;;;;;14.48;11.48;;;8.70;89.30;;;;;;10896271;32;20354;-74
2023/01/11 23:01:41;;;;;;;17.52;12.98;;;8.90;89.10;;;;;;10909730;32;20023;-73
2023/01/11 23:07:44;;;;;;;19.33;14.57;;;9.10;89.00;;;;;;10909695;32;20051;-73
2023/01/11 23:13:53;;;;;;;21.25;15.32;;;9.20;88.70;;;;;;10906155;32;20054;-74
2023/01/11 23:19:55;;;;;;;18.50;13.48;;;9.30;88.60;;;;;;10893224;32;20023;-74
2023/01/11 23:25:57;;;;;;;20.25;13.88;;;9.30;88.40;;;;;;10908946;32;20023;-74
2023/01/11 23:31:59;;;;;;;18.75;12.65;;;9.30;88.50;;;;;;10908916;32;20019;-74
2023/01/11 23:38:02;;;;;;;16.27;13.13;;;9.30;88.50;;;;;;10882601;32;20058;-74
2023/01/11 23:44:09;;;;;;;19.27;12.98;;;9.40;88.60;;;;;;10908419;32;20019;-74
2023/01/11 23:50:12;;;;;;;14.65;10.05;;;9.40;88.60;;;;;;10908181;32;20019;-74
2023/01/11 23:56:14;;;;;;;9.48;7.72;;;9.50;88.80;;;;;;10903734;32;20076;-74
